sensor_id;sensor_type;location;lat;lon;timestamp;pressure;altitude;pressure_sealevel;temperature;humidity
49297;BME280;35163;48.878;18.040;2023-01-28T00:01:11;98484.56;;;0.53;72.64
49297;BME280;35163;48.878;18.040;2023-01-28T00:03:38;98488.81;;;0.56;71.56
49297;BME280;35163;48.878;18.040;2023-01-28T00:06:07;98482.84;;;0.57;72.11
49297;BME280;35163;48.878;18.040;2023-01-28T00:08:35;98484.63;;;0.63;71.95
49297;BME280;35163;48.878;18.040;2023-01-28T00:11:03;98492.22;;;0.58;72.21
49297;BME280;35163;48.878;18.040;2023-01-28T00:13:31;98491.34;;;0.56;71.93
49297;BME280;35163;48.878;18.040;2023-01-28T00:16:00;98486.97;;;0.42;71.90
49297;BME280;35163;48.878;18.040;2023-01-28T00:18:27;98494.63;;;0.44;71.35
49297;BME280;35163;48.878;18.040;2023-01-28T00:21:04;98487.84;;;0.46;71.93
49297;BME280;35163;48.878;18.040;2023-01-28T00:23:33;98498.75;;;0.34;72.61
49297;BME280;35163;48.878;18.040;2023-01-28T00:26:03;98496.09;;;0.24;73.27
49297;BME280;35163;48.878;18.040;2023-01-28T00:28:30;98498.63;;;0.23;73.01
49297;BME280;35163;48.878;18.040;2023-01-28T00:30:57;98500.28;;;0.21;73.28
49297;BME280;35163;48.878;18.040;2023-01-28T00:33:24;98496.13;;;0.29;73.71
49297;BME280;35163;48.878;18.040;2023-01-28T00:36:00;98488.47;;;0.24;73.86
49297;BME280;35163;48.878;18.040;2023-01-28T00:38:27;98485.81;;;0.14;75.35
49297;BME280;35163;48.878;18.040;2023-01-28T00:40:54;98486.66;;;0.14;75.72
49297;BME280;35163;48.878;18.040;2023-01-28T00:43:21;98490.19;;;0.26;75.18
49297;BME280;35163;48.878;18.040;2023-01-28T00:45:47;98496.97;;;0.27;74.24
49297;BME280;35163;48.878;18.040;2023-01-28T00:48:15;98485.84;;;0.17;74.21
49297;BME280;35163;48.878;18.040;2023-01-28T00:50:43;98490.13;;;0.22;73.87
49297;BME280;35163;48.878;18.040;2023-01-28T00:53:10;98485.94;;;0.26;73.16
49297;BME280;35163;48.878;18.040;2023-01-28T00:55:37;98485.84;;;0.17;73.40
49297;BME280;35163;48.878;18.040;2023-01-28T00:58:04;98484.97;;;0.16;73.27
49297;BME280;35163;48.878;18.040;2023-01-28T01:00:30;98493.47;;;0.15;73.45
49297;BME280;35163;48.878;18.040;2023-01-28T01:02:58;98483.31;;;0.18;73.62
49297;BME280;35163;48.878;18.040;2023-01-28T01:05:24;98491.66;;;0.08;73.01
49297;BME280;35163;48.878;18.040;2023-01-28T01:07:51;98491.63;;;0.03;73.43
49297;BME280;35163;48.878;18.040;2023-01-28T01:10:18;98497.47;;;-0.03;75.95
49297;BME280;35163;48.878;18.040;2023-01-28T01:12:49;98494.72;;;-0.18;78.29
49297;BME280;35163;48.878;18.040;2023-01-28T01:15:16;98496.47;;;-0.17;77.58
49297;BME280;35163;48.878;18.040;2023-01-28T01:17:45;98489.69;;;-0.15;77.22
49297;BME280;35163;48.878;18.040;2023-01-28T01:20:22;98491.28;;;-0.22;76.52
49297;BME280;35163;48.878;18.040;2023-01-28T01:22:49;98495.50;;;-0.24;78.51
49297;BME280;35163;48.878;18.040;2023-01-28T01:25:17;98477.53;;;-0.38;78.94
49297;BME280;35163;48.878;18.040;2023-01-28T01:27:48;98499.63;;;-0.31;79.42
49297;BME280;35163;48.878;18.040;2023-01-28T01:30:15;98494.56;;;-0.31;80.03
49297;BME280;35163;48.878;18.040;2023-01-28T01:32:42;98498.13;;;-0.19;80.24
49297;BME280;35163;48.878;18.040;2023-01-28T01:35:09;98493.00;;;-0.21;79.82
49297;BME280;35163;48.878;18.040;2023-01-28T01:37:36;98491.25;;;-0.25;80.35
49297;BME280;35163;48.878;18.040;2023-01-28T01:40:04;98491.94;;;-0.37;80.20
49297;BME280;35163;48.878;18.040;2023-01-28T01:42:33;98502.19;;;-0.31;82.04
49297;BME280;35163;48.878;18.040;2023-01-28T01:45:11;98502.16;;;-0.32;80.35
49297;BME280;35163;48.878;18.040;2023-01-28T01:48:12;98503.81;;;-0.36;80.12
49297;BME280;35163;48.878;18.040;2023-01-28T01:50:47;98502.16;;;-0.32;80.20
49297;BME280;35163;48.878;18.040;2023-01-28T01:53:18;98503.97;;;-0.25;79.57
49297;BME280;35163;48.878;18.040;2023-01-28T01:55:47;98505.72;;;-0.22;79.65
49297;BME280;35163;48.878;18.040;2023-01-28T01:58:18;98505.56;;;-0.32;79.20
49297;BME280;35163;48.878;18.040;2023-01-28T02:00:46;98503.84;;;-0.34;79.08
49297;BME280;35163;48.878;18.040;2023-01-28T02:03:15;98509.66;;;-0.42;78.74
49297;BME280;35163;48.878;18.040;2023-01-28T02:05:44;98505.38;;;-0.46;79.99
49297;BME280;35163;48.878;18.040;2023-01-28T02:08:11;98494.47;;;-0.37;79.33
49297;BME280;35163;48.878;18.040;2023-01-28T02:10:51;98503.66;;;-0.48;79.16
49297;BME280;35163;48.878;18.040;2023-01-28T02:13:21;98507.13;;;-0.42;79.04
49297;BME280;35163;48.878;18.040;2023-01-28T02:15:51;98505.53;;;-0.33;79.31
49297;BME280;35163;48.878;18.040;2023-01-28T02:18:18;98499.59;;;-0.34;78.77
49297;BME280;35163;48.878;18.040;2023-01-28T02:29:31;98501.38;;;-0.30;76.32
49297;BME280;35163;48.878;18.040;2023-01-28T02:34:40;98506.50;;;-0.25;76.89
49297;BME280;35163;48.878;18.040;2023-01-28T02:37:15;98506.53;;;-0.23;76.61
49297;BME280;35163;48.878;18.040;2023-01-28T02:39:50;98504.09;;;-0.17;75.98
49297;BME280;35163;48.878;18.040;2023-01-28T02:42:21;98498.13;;;-0.19;75.22
49297;BME280;35163;48.878;18.040;2023-01-28T02:44:49;98509.94;;;-0.21;75.54
49297;BME280;35163;48.878;18.040;2023-01-28T02:47:15;98492.09;;;-0.26;74.86
49297;BME280;35163;48.878;18.040;2023-01-28T02:50:07;98493.00;;;-0.22;75.54
49297;BME280;35163;48.878;18.040;2023-01-28T02:55:44;98493.94;;;-0.14;74.04
49297;BME280;35163;48.878;18.040;2023-01-28T02:58:28;98496.28;;;-0.30;74.78
49297;BME280;35163;48.878;18.040;2023-01-28T03:01:33;98491.22;;;-0.27;74.68
49297;BME280;35163;48.878;18.040;2023-01-28T03:04:19;98490.38;;;-0.27;74.31
49297;BME280;35163;48.878;18.040;2023-01-28T03:06:52;98493.78;;;-0.27;74.04
49297;BME280;35163;48.878;18.040;2023-01-28T03:09:21;98493.63;;;-0.36;73.84
49297;BME280;35163;48.878;18.040;2023-01-28T03:14:48;98492.72;;;-0.41;73.27
49297;BME280;35163;48.878;18.040;2023-01-28T03:17:39;98500.38;;;-0.40;72.87
49297;BME280;35163;48.878;18.040;2023-01-28T03:20:30;98502.19;;;-0.31;72.88
49297;BME280;35163;48.878;18.040;2023-01-28T03:23:22;98499.63;;;-0.31;74.00
49297;BME280;35163;48.878;18.040;2023-01-28T03:26:12;98492.91;;;-0.29;72.63
49297;BME280;35163;48.878;18.040;2023-01-28T03:29:05;98495.47;;;-0.27;72.90
49297;BME280;35163;48.878;18.040;2023-01-28T03:31:53;98496.31;;;-0.27;72.87
49297;BME280;35163;48.878;18.040;2023-01-28T03:34:39;98501.25;;;-0.36;73.03
49297;BME280;35163;48.878;18.040;2023-01-28T03:37:24;98507.97;;;-0.41;73.03
49297;BME280;35163;48.878;18.040;2023-01-28T03:39:53;98508.88;;;-0.38;72.96
49297;BME280;35163;48.878;18.040;2023-01-28T03:42:23;98513.22;;;-0.29;73.86
49297;BME280;35163;48.878;18.040;2023-01-28T03:44:49;98522.38;;;-0.42;73.40
49297;BME280;35163;48.878;18.040;2023-01-28T03:47:24;98514.84;;;-0.34;73.98
49297;BME280;35163;48.878;18.040;2023-01-28T03:49:52;98510.63;;;-0.33;74.34
49297;BME280;35163;48.878;18.040;2023-01-28T03:52:28;98528.47;;;-0.29;74.15
49297;BME280;35163;48.878;18.040;2023-01-28T03:54:55;98525.97;;;-0.26;73.79
49297;BME280;35163;48.878;18.040;2023-01-28T03:57:24;98525.16;;;-0.25;74.35
49297;BME280;35163;48.878;18.040;2023-01-28T03:59:54;98519.22;;;-0.25;74.26
49297;BME280;35163;48.878;18.040;2023-01-28T04:02:21;98523.44;;;-0.26;76.01
49297;BME280;35163;48.878;18.040;2023-01-28T04:04:48;98526.81;;;-0.27;75.86
49297;BME280;35163;48.878;18.040;2023-01-28T04:07:16;98530.09;;;-0.34;75.53
49297;BME280;35163;48.878;18.040;2023-01-28T04:09:43;98532.81;;;-0.21;78.22
49297;BME280;35163;48.878;18.040;2023-01-28T04:12:10;98522.47;;;-0.34;76.60
49297;BME280;35163;48.878;18.040;2023-01-28T04:14:37;98523.31;;;-0.35;77.11
49297;BME280;35163;48.878;18.040;2023-01-28T04:17:06;98536.94;;;-0.30;76.85
49297;BME280;35163;48.878;18.040;2023-01-28T04:19:38;98530.81;;;-0.41;77.49
49297;BME280;35163;48.878;18.040;2023-01-28T04:22:07;98531.00;;;-0.30;77.42
49297;BME280;35163;48.878;18.040;2023-01-28T04:24:36;98530.97;;;-0.32;77.13
49297;BME280;35163;48.878;18.040;2023-01-28T04:27:02;98546.22;;;-0.32;77.79
49297;BME280;35163;48.878;18.040;2023-01-28T04:29:29;98530.94;;;-0.35;80.59
49297;BME280;35163;48.878;18.040;2023-01-28T04:31:57;98540.19;;;-0.40;79.23
49297;BME280;35163;48.878;18.040;2023-01-28T04:34:23;98545.31;;;-0.37;80.15
49297;BME280;35163;48.878;18.040;2023-01-28T04:36:50;98545.09;;;-0.50;80.33
49297;BME280;35163;48.878;18.040;2023-01-28T04:39:16;98550.25;;;-0.46;83.14
49297;BME280;35163;48.878;18.040;2023-01-28T04:41:43;98539.91;;;-0.59;81.47
49297;BME280;35163;48.878;18.040;2023-01-28T04:44:10;98554.25;;;-0.61;83.82
49297;BME280;35163;48.878;18.040;2023-01-28T04:46:36;98560.19;;;-0.60;84.13
49297;BME280;35163;48.878;18.040;2023-01-28T04:49:03;98554.97;;;-0.68;83.12
49297;BME280;35163;48.878;18.040;2023-01-28T04:51:29;98562.50;;;-0.76;84.89
49297;BME280;35163;48.878;18.040;2023-01-28T04:53:56;98559.09;;;-0.75;85.82
49297;BME280;35163;48.878;18.040;2023-01-28T04:56:25;98556.50;;;-0.80;83.82
49297;BME280;35163;48.878;18.040;2023-01-28T04:58:52;98561.78;;;-0.67;85.97
49297;BME280;35163;48.878;18.040;2023-01-28T05:01:18;98553.28;;;-0.69;84.48
49297;BME280;35163;48.878;18.040;2023-01-28T05:03:45;98561.84;;;-0.64;85.24
49297;BME280;35163;48.878;18.040;2023-01-28T05:06:11;98563.56;;;-0.60;84.47
49297;BME280;35163;48.878;18.040;2023-01-28T05:08:38;98568.66;;;-0.60;84.50
49297;BME280;35163;48.878;18.040;2023-01-28T05:11:05;98558.56;;;-0.57;84.16
49297;BME280;35163;48.878;18.040;2023-01-28T05:13:32;98561.94;;;-0.58;82.86
49297;BME280;35163;48.878;18.040;2023-01-28T05:16:01;98567.69;;;-0.68;84.31
49297;BME280;35163;48.878;18.040;2023-01-28T05:18:27;98571.19;;;-0.62;85.03
49297;BME280;35163;48.878;18.040;2023-01-28T05:20:54;98570.38;;;-0.59;83.33
49297;BME280;35163;48.878;18.040;2023-01-28T05:23:21;98578.06;;;-0.54;82.97
49297;BME280;35163;48.878;18.040;2023-01-28T05:25:48;98580.69;;;-0.50;82.84
49297;BME280;35163;48.878;18.040;2023-01-28T05:28:15;98583.22;;;-0.50;83.65
49297;BME280;35163;48.878;18.040;2023-01-28T05:30:42;98579.75;;;-0.55;83.57
49297;BME280;35163;48.878;18.040;2023-01-28T05:33:08;98588.97;;;-0.62;83.61
49297;BME280;35163;48.878;18.040;2023-01-28T05:35:35;98581.41;;;-0.58;82.78
49297;BME280;35163;48.878;18.040;2023-01-28T05:38:02;98577.09;;;-0.63;83.67
49297;BME280;35163;48.878;18.040;2023-01-28T05:40:29;98575.47;;;-0.59;84.11
49297;BME280;35163;48.878;18.040;2023-01-28T05:42:55;98584.84;;;-0.55;82.81
49297;BME280;35163;48.878;18.040;2023-01-28T05:45:22;98584.09;;;-0.47;84.00
49297;BME280;35163;48.878;18.040;2023-01-28T05:47:49;98584.06;;;-0.51;83.41
49297;BME280;35163;48.878;18.040;2023-01-28T05:50:15;98580.69;;;-0.50;83.60
49297;BME280;35163;48.878;18.040;2023-01-28T05:52:43;98585.00;;;-0.45;84.09
49297;BME280;35163;48.878;18.040;2023-01-28T05:55:10;98587.50;;;-0.48;83.99
49297;BME280;35163;48.878;18.040;2023-01-28T05:57:36;98584.06;;;-0.51;84.74
49297;BME280;35163;48.878;18.040;2023-01-28T06:00:03;98591.00;;;-0.40;84.05
49297;BME280;35163;48.878;18.040;2023-01-28T06:02:31;98599.50;;;-0.38;84.17
49297;BME280;35163;48.878;18.040;2023-01-28T06:04:58;98601.13;;;-0.43;85.40
49297;BME280;35163;48.878;18.040;2023-01-28T06:07:25;98599.50;;;-0.40;83.28
49297;BME280;35163;48.878;18.040;2023-01-28T06:09:51;98597.72;;;-0.44;83.76
49297;BME280;35163;48.878;18.040;2023-01-28T06:12:18;98607.19;;;-0.35;83.77
49297;BME280;35163;48.878;18.040;2023-01-28T06:14:44;98608.09;;;-0.30;84.26
49297;BME280;35163;48.878;18.040;2023-01-28T06:17:11;98615.75;;;-0.28;82.66
49297;BME280;35163;48.878;18.040;2023-01-28T06:19:40;98608.16;;;-0.27;82.73
49297;BME280;35163;48.878;18.040;2023-01-28T06:22:07;98614.09;;;-0.26;82.83
49297;BME280;35163;48.878;18.040;2023-01-28T06:24:34;98609.91;;;-0.22;82.19
49297;BME280;35163;48.878;18.040;2023-01-28T06:27:00;98614.88;;;-0.29;82.35
49297;BME280;35163;48.878;18.040;2023-01-28T06:29:27;98611.66;;;-0.18;81.68
49297;BME280;35163;48.878;18.040;2023-01-28T06:31:54;98625.22;;;-0.19;81.07
49297;BME280;35163;48.878;18.040;2023-01-28T06:34:21;98626.94;;;-0.15;81.36
49297;BME280;35163;48.878;18.040;2023-01-28T06:36:47;98625.28;;;-0.15;80.54
49297;BME280;35163;48.878;18.040;2023-01-28T06:39:16;98629.47;;;-0.17;80.66
49297;BME280;35163;48.878;18.040;2023-01-28T06:41:42;98626.13;;;-0.16;80.65
49297;BME280;35163;48.878;18.040;2023-01-28T06:44:09;98639.63;;;-0.17;81.02
49297;BME280;35163;48.878;18.040;2023-01-28T06:46:35;98632.03;;;-0.15;81.12
49297;BME280;35163;48.878;18.040;2023-01-28T06:49:02;98637.91;;;-0.21;81.79
49297;BME280;35163;48.878;18.040;2023-01-28T06:51:29;98634.50;;;-0.20;81.37
49297;BME280;35163;48.878;18.040;2023-01-28T06:54:03;98638.66;;;-0.27;81.59
49297;BME280;35163;48.878;18.040;2023-01-28T06:56:30;98637.03;;;-0.21;79.99
49297;BME280;35163;48.878;18.040;2023-01-28T06:58:56;98643.97;;;-0.13;80.48
49297;BME280;35163;48.878;18.040;2023-01-28T07:01:23;98639.75;;;-0.10;80.91
49297;BME280;35163;48.878;18.040;2023-01-28T07:03:50;98644.78;;;-0.12;80.82
49297;BME280;35163;48.878;18.040;2023-01-28T07:06:17;98654.84;;;-0.20;80.26
49297;BME280;35163;48.878;18.040;2023-01-28T07:08:43;98649.88;;;-0.12;79.68
49297;BME280;35163;48.878;18.040;2023-01-28T07:11:10;98646.53;;;-0.11;79.80
49297;BME280;35163;48.878;18.040;2023-01-28T07:13:36;98649.09;;;-0.08;79.62
49297;BME280;35163;48.878;18.040;2023-01-28T07:16:03;98653.31;;;-0.10;79.00
49297;BME280;35163;48.878;18.040;2023-01-28T07:18:30;98656.72;;;-0.08;78.42
49297;BME280;35163;48.878;18.040;2023-01-28T07:20:57;98656.88;;;0.00;79.18
49297;BME280;35163;48.878;18.040;2023-01-28T07:23:24;98656.88;;;0.02;78.58
49297;BME280;35163;48.878;18.040;2023-01-28T07:25:52;98656.06;;;0.06;78.10
49297;BME280;35163;48.878;18.040;2023-01-28T07:28:20;98663.84;;;0.15;77.75
49297;BME280;35163;48.878;18.040;2023-01-28T07:30:48;98662.16;;;0.16;76.63
49297;BME280;35163;48.878;18.040;2023-01-28T07:33:18;98660.53;;;0.21;77.91
49297;BME280;35163;48.878;18.040;2023-01-28T07:35:45;98660.56;;;0.22;76.50
49297;BME280;35163;48.878;18.040;2023-01-28T07:38:14;98674.22;;;0.29;76.77
49297;BME280;35163;48.878;18.040;2023-01-28T07:40:45;98671.75;;;0.34;76.30
49297;BME280;35163;48.878;18.040;2023-01-28T07:43:12;98671.75;;;0.34;74.25
49297;BME280;35163;48.878;18.040;2023-01-28T07:45:42;98672.63;;;0.36;74.06
49297;BME280;35163;48.878;18.040;2023-01-28T07:48:10;98680.38;;;0.45;74.22
49297;BME280;35163;48.878;18.040;2023-01-28T07:50:37;98678.81;;;0.55;74.04
49297;BME280;35163;48.878;18.040;2023-01-28T07:53:06;98686.53;;;0.60;73.96
49297;BME280;35163;48.878;18.040;2023-01-28T07:55:33;98690.88;;;0.70;73.20
49297;BME280;35163;48.878;18.040;2023-01-28T07:58:05;98676.28;;;0.58;72.52
49297;BME280;35163;48.878;18.040;2023-01-28T08:00:36;98684.75;;;0.54;72.98
49297;BME280;35163;48.878;18.040;2023-01-28T08:03:05;98690.78;;;0.61;72.89
49297;BME280;35163;48.878;18.040;2023-01-28T08:08:09;98693.41;;;0.69;72.23
49297;BME280;35163;48.878;18.040;2023-01-28T08:10:36;98701.91;;;0.71;73.38
49297;BME280;35163;48.878;18.040;2023-01-28T08:13:03;98702.81;;;0.73;73.90
49297;BME280;35163;48.878;18.040;2023-01-28T08:15:30;98704.41;;;0.66;74.22
49297;BME280;35163;48.878;18.040;2023-01-28T08:18:00;98713.84;;;0.72;74.62
49297;BME280;35163;48.878;18.040;2023-01-28T08:20:33;98717.22;;;0.74;75.90
49297;BME280;35163;48.878;18.040;2023-01-28T08:23:16;98710.44;;;0.73;74.43
49297;BME280;35163;48.878;18.040;2023-01-28T08:25:44;98709.59;;;0.76;75.34
49297;BME280;35163;48.878;18.040;2023-01-28T08:28:12;98698.56;;;0.74;75.19
49297;BME280;35163;48.878;18.040;2023-01-28T08:30:39;98715.53;;;0.75;75.44
49297;BME280;35163;48.878;18.040;2023-01-28T08:33:07;98709.50;;;0.66;75.77
49297;BME280;35163;48.878;18.040;2023-01-28T08:35:35;98714.59;;;0.66;76.95
49297;BME280;35163;48.878;18.040;2023-01-28T08:38:10;98714.63;;;0.69;76.76
49297;BME280;35163;48.878;18.040;2023-01-28T08:40:37;98716.31;;;0.70;76.62
49297;BME280;35163;48.878;18.040;2023-01-28T08:43:04;98709.56;;;0.72;76.69
49297;BME280;35163;48.878;18.040;2023-01-28T08:45:31;98724.03;;;0.74;77.41
49297;BME280;35163;48.878;18.040;2023-01-28T08:50:30;98723.06;;;0.65;75.91
49297;BME280;35163;48.878;18.040;2023-01-28T08:53:03;98730.56;;;0.54;75.73
49297;BME280;35163;48.878;18.040;2023-01-28T08:55:30;98732.34;;;0.62;75.20
49297;BME280;35163;48.878;18.040;2023-01-28T08:58:01;98731.41;;;0.55;75.83
49297;BME280;35163;48.878;18.040;2023-01-28T09:00:30;98731.47;;;0.58;75.37
49297;BME280;35163;48.878;18.040;2023-01-28T09:02:58;98729.75;;;0.58;74.52
49297;BME280;35163;48.878;18.040;2023-01-28T09:05:25;98740.13;;;0.74;74.61
49297;BME280;35163;48.878;18.040;2023-01-28T09:07:52;98737.56;;;0.71;74.48
49297;BME280;35163;48.878;18.040;2023-01-28T09:10:18;98740.13;;;0.74;74.46
49297;BME280;35163;48.878;18.040;2023-01-28T09:12:48;98748.47;;;0.62;74.97
49297;BME280;35163;48.878;18.040;2023-01-28T09:15:14;98740.84;;;0.64;73.98
49297;BME280;35163;48.878;18.040;2023-01-28T09:17:41;98747.66;;;0.65;75.22
49297;BME280;35163;48.878;18.040;2023-01-28T09:20:08;98742.59;;;0.66;75.09
49297;BME280;35163;48.878;18.040;2023-01-28T09:22:37;98737.59;;;0.74;75.14
49297;BME280;35163;48.878;18.040;2023-01-28T09:25:07;98756.34;;;0.81;75.43
49297;BME280;35163;48.878;18.040;2023-01-28T09:27:34;98748.81;;;0.87;75.66
49297;BME280;35163;48.878;18.040;2023-01-28T09:30:03;98742.84;;;0.85;74.75
49297;BME280;35163;48.878;18.040;2023-01-28T09:32:29;98745.38;;;0.85;74.55
49297;BME280;35163;48.878;18.040;2023-01-28T09:34:56;98752.97;;;0.80;75.79
49297;BME280;35163;48.878;18.040;2023-01-28T09:37:23;98748.78;;;0.84;75.48
49297;BME280;35163;48.878;18.040;2023-01-28T09:39:55;98752.25;;;0.91;74.23
49297;BME280;35163;48.878;18.040;2023-01-28T09:47:52;98759.13;;;1.00;74.00
49297;BME280;35163;48.878;18.040;2023-01-28T09:50:31;98762.59;;;1.05;74.25
49297;BME280;35163;48.878;18.040;2023-01-28T09:53:06;98749.06;;;1.07;74.90
49297;BME280;35163;48.878;18.040;2023-01-28T09:55:42;98751.66;;;1.12;74.64
49297;BME280;35163;48.878;18.040;2023-01-28T09:58:11;98752.56;;;1.17;74.44
49297;BME280;35163;48.878;18.040;2023-01-28T10:00:52;98750.91;;;1.19;74.33
49297;BME280;35163;48.878;18.040;2023-01-28T10:06:33;98752.75;;;1.33;75.03
49297;BME280;35163;48.878;18.040;2023-01-28T10:09:35;98744.22;;;1.31;73.13
49297;BME280;35163;48.878;18.040;2023-01-28T10:12:25;98730.59;;;1.26;73.52
49297;BME280;35163;48.878;18.040;2023-01-28T10:17:37;98742.53;;;1.30;74.45
49297;BME280;35163;48.878;18.040;2023-01-28T10:23:00;98736.47;;;1.18;72.83
49297;BME280;35163;48.878;18.040;2023-01-28T10:25:31;98739.06;;;1.25;72.75
49297;BME280;35163;48.878;18.040;2023-01-28T10:28:04;98739.16;;;1.34;73.15
49297;BME280;35163;48.878;18.040;2023-01-28T10:30:37;98742.53;;;1.30;73.32
49297;BME280;35163;48.878;18.040;2023-01-28T10:33:17;98740.88;;;1.32;74.77
49297;BME280;35163;48.878;18.040;2023-01-28T10:35:44;98734.03;;;1.31;73.98
49297;BME280;35163;48.878;18.040;2023-01-28T10:38:16;98739.03;;;1.18;74.80
49297;BME280;35163;48.878;18.040;2023-01-28T10:40:43;98741.56;;;1.18;74.89
49297;BME280;35163;48.878;18.040;2023-01-28T10:43:24;98736.38;;;1.12;75.33
49297;BME280;35163;48.878;18.040;2023-01-28T10:49:01;98746.63;;;1.17;76.74
49297;BME280;35163;48.878;18.040;2023-01-28T10:51:35;98749.97;;;1.11;76.04
49297;BME280;35163;48.878;18.040;2023-01-28T10:54:03;98740.72;;;1.19;75.71
49297;BME280;35163;48.878;18.040;2023-01-28T10:56:46;98746.44;;;1.01;75.76
49297;BME280;35163;48.878;18.040;2023-01-28T10:59:30;98737.25;;;1.14;76.24
49297;BME280;35163;48.878;18.040;2023-01-28T11:02:19;98742.19;;;1.02;75.56
49297;BME280;35163;48.878;18.040;2023-01-28T11:04:59;98740.66;;;1.13;76.04
49297;BME280;35163;48.878;18.040;2023-01-28T11:07:27;98737.91;;;0.98;75.94
49297;BME280;35163;48.878;18.040;2023-01-28T11:09:54;98746.41;;;1.00;76.29
49297;BME280;35163;48.878;18.040;2023-01-28T11:12:28;98735.34;;;0.94;76.05
49297;BME280;35163;48.878;18.040;2023-01-28T11:15:00;98736.16;;;0.93;76.23
49297;BME280;35163;48.878;18.040;2023-01-28T11:17:35;98730.34;;;1.05;75.58
49297;BME280;35163;48.878;18.040;2023-01-28T11:20:34;98730.28;;;0.98;74.72
49297;BME280;35163;48.878;18.040;2023-01-28T11:23:03;98745.47;;;0.91;74.41
49297;BME280;35163;48.878;18.040;2023-01-28T11:25:32;98732.78;;;0.94;73.54
49297;BME280;35163;48.878;18.040;2023-01-28T11:28:17;98736.34;;;1.07;74.02
49297;BME280;35163;48.878;18.040;2023-01-28T11:30:50;98737.91;;;0.98;73.99
49297;BME280;35163;48.878;18.040;2023-01-28T11:33:21;98743.91;;;1.03;73.03
49297;BME280;35163;48.878;18.040;2023-01-28T11:35:53;98727.78;;;1.04;73.49
49297;BME280;35163;48.878;18.040;2023-01-28T11:38:24;98734.66;;;1.08;73.12
49297;BME280;35163;48.878;18.040;2023-01-28T11:40:57;98742.31;;;1.11;73.11
49297;BME280;35163;48.878;18.040;2023-01-28T11:43:25;98734.78;;;1.20;72.91
49297;BME280;35163;48.878;18.040;2023-01-28T11:52:01;98738.97;;;1.15;72.30
49297;BME280;35163;48.878;18.040;2023-01-28T11:57:22;98741.63;;;1.23;72.75
49297;BME280;35163;48.878;18.040;2023-01-28T12:13:28;98750.41;;;1.50;67.58
49297;BME280;35163;48.878;18.040;2023-01-28T12:35:21;98742.72;;;1.49;68.56
49297;BME280;35163;48.878;18.040;2023-01-28T12:37:59;98752.19;;;1.61;68.67
49297;BME280;35163;48.878;18.040;2023-01-28T12:40:44;98747.91;;;1.58;68.14
49297;BME280;35163;48.878;18.040;2023-01-28T12:45:54;98749.63;;;1.59;68.56
49297;BME280;35163;48.878;18.040;2023-01-28T12:48:35;98739.47;;;1.62;67.69
49297;BME280;35163;48.878;18.040;2023-01-28T12:51:15;98733.47;;;1.55;67.99
49297;BME280;35163;48.878;18.040;2023-01-28T12:57:01;98755.50;;;1.50;67.79
49297;BME280;35163;48.878;18.040;2023-01-28T12:59:37;98742.78;;;1.55;68.66
49297;BME280;35163;48.878;18.040;2023-01-28T13:04:41;98746.25;;;1.62;67.11
49297;BME280;35163;48.878;18.040;2023-01-28T13:07:19;98752.25;;;1.67;67.34
49297;BME280;35163;48.878;18.040;2023-01-28T13:12:38;98744.50;;;1.53;67.28
49297;BME280;35163;48.878;18.040;2023-01-28T13:15:10;98743.72;;;1.63;66.81
49297;BME280;35163;48.878;18.040;2023-01-28T13:17:37;98751.44;;;1.68;66.94
49297;BME280;35163;48.878;18.040;2023-01-28T13:20:27;98749.78;;;1.75;66.82
49297;BME280;35163;48.878;18.040;2023-01-28T13:23:00;98747.25;;;1.76;66.03
49297;BME280;35163;48.878;18.040;2023-01-28T13:25:27;98748.88;;;1.68;65.82
49297;BME280;35163;48.878;18.040;2023-01-28T13:28:01;98760.59;;;1.52;66.20
49297;BME280;35163;48.878;18.040;2023-01-28T13:30:31;98768.31;;;1.58;65.80
49297;BME280;35163;48.878;18.040;2023-01-28T13:33:01;98758.19;;;1.64;66.17
49297;BME280;35163;48.878;18.040;2023-01-28T13:35:39;98751.28;;;1.54;65.92
49297;BME280;35163;48.878;18.040;2023-01-28T13:38:16;98764.97;;;1.62;65.79
49297;BME280;35163;48.878;18.040;2023-01-28T13:40:57;98761.63;;;1.66;66.81
49297;BME280;35163;48.878;18.040;2023-01-28T13:46:06;98766.59;;;1.57;66.90
49297;BME280;35163;48.878;18.040;2023-01-28T13:48:41;98770.06;;;1.62;67.74
49297;BME280;35163;48.878;18.040;2023-01-28T13:51:22;98775.09;;;1.56;67.64
49297;BME280;35163;48.878;18.040;2023-01-28T13:53:59;98773.47;;;1.61;67.26
49297;BME280;35163;48.878;18.040;2023-01-28T13:59:39;98781.13;;;1.64;67.71
49297;BME280;35163;48.878;18.040;2023-01-28T14:02:26;98782.84;;;1.65;68.22
49297;BME280;35163;48.878;18.040;2023-01-28T14:18:55;98795.66;;;1.72;67.49
49297;BME280;35163;48.878;18.040;2023-01-28T14:21:26;98795.56;;;1.64;66.80
49297;BME280;35163;48.878;18.040;2023-01-28T14:23:55;98783.75;;;1.72;67.32
49297;BME280;35163;48.878;18.040;2023-01-28T14:29:07;98787.16;;;1.73;67.05
49297;BME280;35163;48.878;18.040;2023-01-28T14:31:38;98781.19;;;1.72;66.29
49297;BME280;35163;48.878;18.040;2023-01-28T14:36:36;98786.38;;;1.77;65.50
49297;BME280;35163;48.878;18.040;2023-01-28T14:39:03;98789.69;;;1.68;65.13
49297;BME280;35163;48.878;18.040;2023-01-28T14:41:30;98786.25;;;1.66;65.07
49297;BME280;35163;48.878;18.040;2023-01-28T14:43:57;98785.34;;;1.62;64.81
49297;BME280;35163;48.878;18.040;2023-01-28T14:47:26;98791.28;;;1.60;65.17
49297;BME280;35163;48.878;18.040;2023-01-28T14:58:28;98813.34;;;1.56;64.08
49297;BME280;35163;48.878;18.040;2023-01-28T15:01:00;98812.47;;;1.55;64.03
49297;BME280;35163;48.878;18.040;2023-01-28T15:03:28;98816.69;;;1.52;64.52
49297;BME280;35163;48.878;18.040;2023-01-28T15:06:04;98822.56;;;1.46;63.80
49297;BME280;35163;48.878;18.040;2023-01-28T15:08:31;98831.94;;;1.47;64.88
49297;BME280;35163;48.878;18.040;2023-01-28T15:10:59;98827.59;;;1.41;64.11
49297;BME280;35163;48.878;18.040;2023-01-28T15:13:33;98828.34;;;1.32;64.66
49297;BME280;35163;48.878;18.040;2023-01-28T15:16:02;98830.09;;;1.35;65.44
49297;BME280;35163;48.878;18.040;2023-01-28T15:18:33;98830.13;;;1.38;64.80
49297;BME280;35163;48.878;18.040;2023-01-28T15:21:01;98834.44;;;1.42;65.33